< < Back
Terminal Aerodrome Forecast


Current Version              Previous Versions:   1  2  3  4  5  6  7  8  9  

Terminal Aerodrome Forecast

124
FTUS44 KMOB 181700
TAFMOB
TAF
KMOB 181737Z 1818/1918 VRB03KT P6SM SCT100 BKN250
     FM190100 03004KT P6SM BKN050
     FM191200 05006KT P6SM -RA BKN035
      TEMPO 1914/1918 3SM RA BR BKN015=

Latest METAR

591
SAUS80 KWBC 191000 CCA
MTRMOB
METAR KMOB 190956Z AUTO 03008KT 6SM HZ OVC035 10/ A3012 RMK AO2 SLP197
T0100 $


USA.gov is the U.S. government's official web portal to all federal, state and local government web resources and services.